Latest Weather Observations for Ballarat

IDV60801

Issued at 10:02 am EST Sunday 1 May 2016 (issued every 30 minutes, with the page automatically refreshed every 10 minutes)

About weather observations | Map of weather stations | Latest weather observations for VIC | Other Formats
Station Details ID: 089002 Name: BALLARAT AERODROME Lat: -37.51 Lon: 143.79 Height: 435.2 m
Data from the previous 72 hours. | See also: Recent months at Ballarat
Date/Time
EST
Temp
°C
App
Temp
°C
Dew
Point
Rel
Hum
%
Delta-T
°C
Wind Press
QNH
hPa
Press
MSL
hPa
Rain
since 9 am
mm
Dir
 
Spd
km/h
Gust
km/h
Spd
kts
Gust
kts
01/10:00am 10.1 3.5 7.7 85 1.2 WNW 32 43 17 23 1009.2 1009.3 0.0
01/09:30am 10.1 3.3 7.5 84 1.3 NW 33 46 18 25 1008.6 1008.2 0.0
01/09:00am 9.6 2.9 7.4 86 1.1 NW 32 43 17 23 1008.0 1007.6 14.8
01/08:30am 9.8 4.6 7.4 85 1.2 NW 24 32 13 17 1007.6 1007.2 14.8
01/08:00am 9.2 3.7 7.5 89 0.8 NW 26 33 14 18 1007.2 1006.8 14.8
01/07:30am 8.9 2.2 8.3 96 0.3 WNW 33 46 18 25 1006.3 1005.8 14.8
01/07:14am 9.1 0.6 8.6 97 0.2 NW 43 61 23 33 1005.8 1005.4 14.8
01/07:00am 9.6 0.3 9.3 98 0.2 NW 48 61 26 33 1005.4 1005.0 14.6
01/06:30am 10.5 2.6 7.9 84 1.3 NW 39 52 21 28 1004.8 1004.4 14.0
01/06:00am 11.1 3.9 9.2 88 1.0 NW 37 50 20 27 1004.7 1004.3 14.0
01/05:30am 11.4 4.3 9.7 89 0.9 NNW 37 46 20 25 1004.0 1003.5 14.0
01/05:01am 12.1 5.7 10.8 92 0.7 NNW 35 43 19 23 1004.1 1003.6 14.0
01/05:00am 12.0 6.0 10.9 93 0.6 NNW 33 43 18 23 1004.1 1003.6 14.0
01/04:42am 11.8 7.8 11.8 100 0.0 N 24 30 13 16 1004.4 1003.9 14.0
01/04:30am 11.6 6.8 11.6 100 0.0 N 28 35 15 19 1004.2 1003.7 14.0
01/04:26am 11.5 6.7 11.5 100 0.0 N 28 35 15 19 1004.4 1003.9 14.0
01/04:24am 11.6 6.8 11.6 100 0.0 N 28 35 15 19 1004.3 1003.8 14.0
01/04:00am 12.3 7.5 11.7 96 0.3 N 28 33 15 18 1004.1 1003.6 14.0
01/03:30am 12.6 9.6 12.1 97 0.3 N 19 24 10 13 1004.2 1003.7 14.0
01/03:00am 13.1 9.0 12.8 98 0.2 WNW 26 41 14 22 1004.8 1004.4 14.0
01/02:51am 13.2 7.9 13.0 99 0.1 NW 33 48 18 26 1005.0 1004.6 14.0
01/02:39am 13.5 7.5 13.3 99 0.1 NNW 37 57 20 31 1004.8 1004.4 14.0
01/02:34am 13.4 8.8 13.4 100 0.0 NNW 30 48 16 26 1004.9 1004.5 14.0
01/02:30am 13.4 9.5 13.4 100 0.0 N 26 41 14 22 1004.7 1004.3 14.0
01/02:25am 13.3 9.8 13.3 100 0.0 N 24 32 13 17 1004.4 1003.9 13.8
01/02:00am 13.6 7.0 13.6 100 0.0 N 41 54 22 29 1005.0 1004.6 11.8
01/01:50am 13.4 7.4 13.4 100 0.0 N 37 57 20 31 1005.8 1005.4 11.4
01/01:46am 13.4 8.4 13.4 100 0.0 N 32 44 17 24 1006.0 1005.5 10.0
01/01:44am 13.5 9.3 13.5 100 0.0 N 28 43 15 23 1005.7 1005.3 10.0
01/01:30am 12.8 9.5 12.8 100 0.0 NNE 22 28 12 15 1004.8 1004.4 8.8
01/01:00am 13.0 9.4 13.0 100 0.0 N 24 30 13 16 1006.0 1005.5 6.4
01/12:59am 13.1 9.5 13.1 100 0.0 N 24 30 13 16 1005.8 1005.4 6.4
01/12:44am 12.2 8.3 12.0 99 0.1 N 24 35 13 19 1005.8 1005.4 5.8
01/12:30am 11.8 2.8 11.5 98 0.2 NNW 50 74 27 40 1006.9 1006.5 2.2
01/12:27am 12.2 3.1 11.4 95 0.4 NNW 50 74 27 40 1006.9 1006.5 1.6
01/12:24am 12.9 5.3 11.8 93 0.6 N 43 74 23 40 1006.7 1006.3 1.2
01/12:22am 14.0 7.9 13.1 94 0.5 N 37 74 20 40 1006.5 1006.1 0.8
01/12:20am 16.0 11.8 15.7 98 0.2 N 32 63 17 34 1006.4 1005.9 0.6
01/12:00am 16.6 11.2 15.1 91 0.9 NNE 37 50 20 27 1006.2 1005.7 0.0
 
Date/Time
EST
Temp
°C
App
Temp
°C
Dew
Point
Rel
Hum
%
Delta-T
°C
Wind Press
QNH
hPa
Press
MSL
hPa
Rain
since 9 am
mm
Dir
 
Spd
km/h
Gust
km/h
Spd
kts
Gust
kts
30/11:30pm 16.7 11.0 14.2 85 1.5 NNE 37 48 20 26 1006.4 1005.9 0.0
30/11:00pm 16.1 11.3 14.5 90 0.9 N 33 41 18 22 1007.3 1006.9 0.0
30/10:30pm 16.2 11.0 14.4 89 1.0 N 35 44 19 24 1008.5 1008.1 0.0
30/10:00pm 16.8 10.7 14.1 84 1.6 N 39 50 21 27 1008.9 1008.5 0.0
30/09:30pm 17.2 11.4 13.9 81 1.9 NNE 37 50 20 27 1009.4 1009.0 0.0
30/09:08pm 17.2 11.4 13.9 81 1.9 NNE 37 56 20 30 1009.3 1008.9 0.0
30/09:00pm 17.0 10.9 14.1 83 1.7 NNE 39 52 21 28 1009.2 1008.8 0.0
30/08:30pm 17.0 11.7 15.2 89 1.1 NNE 37 57 20 31 1009.5 1009.1 0.0
30/08:28pm 17.1 12.2 15.4 90 1.0 NNE 35 57 19 31 1009.6 1009.2 0.0
30/08:00pm 16.7 11.7 16.2 97 0.3 NNE 37 46 20 25 1010.0 1009.6 0.0
30/07:30pm 16.7 11.8 16.4 98 0.2 NNE 37 46 20 25 1010.0 1009.6 0.0
30/07:08pm 16.7 11.8 16.4 98 0.2 NNE 37 56 20 30 1009.9 1009.5 0.0
30/07:00pm 16.7 12.2 16.4 98 0.2 NNE 35 46 19 25 1010.1 1009.7 0.0
30/06:30pm 16.9 13.5 15.9 94 0.6 N 28 37 15 20 1010.1 1009.7 0.0
30/06:00pm 16.5 13.3 16.2 98 0.2 N 28 39 15 21 1010.1 1009.7 0.0
30/05:30pm 16.8 12.5 15.3 91 0.9 N 32 43 17 23 1010.6 1010.3 0.0
30/05:00pm 17.4 12.8 15.2 87 1.3 N 33 44 18 24 1010.7 1010.4 0.0
30/04:30pm 17.7 12.6 14.8 83 1.7 NNE 35 43 19 23 1010.9 1010.5 0.0
30/04:00pm 18.3 14.2 15.0 81 2.0 N 30 43 16 23 1011.1 1010.7 0.0
30/03:30pm 18.0 13.3 14.9 82 1.8 N 33 43 18 23 1011.2 1010.8 0.0
30/03:00pm 18.4 13.3 14.7 79 2.2 NNE 35 43 19 23 1011.4 1011.0 0.0
30/02:30pm 19.2 14.5 14.9 76 2.6 N 33 41 18 22 1011.5 1011.1 0.0
30/02:00pm 19.1 14.6 14.8 76 2.6 N 32 43 17 23 1011.9 1011.5 0.0
30/01:30pm 18.9 14.6 16.0 83 1.8 N 33 41 18 22 1012.2 1011.8 0.0
30/01:28pm 18.4 13.6 14.7 79 2.2 N 33 41 18 22 1012.2 1011.8 0.0
30/01:00pm 18.2 14.0 15.8 86 1.4 N 32 41 17 22 1012.7 1012.4 0.0
30/12:30pm 17.8 14.3 17.5 98 0.2 N 32 41 17 22 1013.1 1012.8 0.0
30/12:00pm 16.5 12.9 16.3 99 0.1 N 30 43 16 23 1013.7 1013.3 0.0
30/11:30am 16.2 12.1 16.0 99 0.1 N 32 44 17 24 1013.9 1013.5 0.0
30/11:00am 15.8 11.5 15.8 100 0.0 N 33 44 18 24 1014.2 1013.8 0.0
30/10:30am 15.5 12.0 15.5 100 0.0 N 28 39 15 21 1014.6 1014.3 0.0
30/10:00am 15.7 11.5 15.7 100 0.0 N 32 43 17 23 1014.6 1014.3 0.0
30/09:30am 15.4 10.9 15.4 100 0.0 N 33 43 18 23 1015.1 1014.8 0.0
30/09:00am 15.0 10.5 15.0 100 0.0 N 32 39 17 21 1015.2 1014.9 2.8
30/08:30am 14.9 11.2 14.9 100 0.0 N 28 35 15 19 1015.2 1014.9 2.8
30/08:00am 14.8 10.3 14.8 100 0.0 N 32 39 17 21 1014.9 1014.6 2.8
30/07:30am 14.6 11.5 14.6 100 0.0 N 24 30 13 16 1014.6 1014.3 2.8
30/07:00am 14.6 10.4 14.6 100 0.0 N 30 39 16 21 1014.3 1014.0 2.8
30/06:54am 14.7 10.1 14.7 100 0.0 N 32 39 17 21 1014.2 1013.8 2.8
30/06:30am 14.4 10.5 14.4 100 0.0 N 28 37 15 20 1014.1 1013.7 2.8
30/06:00am 14.4 10.5 14.4 100 0.0 N 28 35 15 19 1014.0 1013.6 2.8
30/05:49am 14.0 10.3 14.0 100 0.0 N 26 32 14 17 1014.2 1013.8 2.8
30/05:30am 14.1 10.8 14.1 100 0.0 N 24 32 13 17 1014.3 1014.0 2.8
30/05:00am 14.3 11.5 14.3 100 0.0 N 22 28 12 15 1014.2 1013.8 2.8
30/04:30am 14.3 11.1 14.3 100 0.0 N 24 30 13 16 1014.1 1013.7 2.8
30/04:00am 14.3 10.4 14.3 100 0.0 N 28 32 15 17 1013.9 1013.5 2.8
30/03:30am 14.1 10.8 14.1 100 0.0 N 24 32 13 17 1013.9 1013.5 2.8
30/03:00am 14.2 10.6 14.2 100 0.0 N 26 32 14 17 1014.2 1013.8 2.8
30/02:30am 14.0 11.5 14.0 100 0.0 N 20 26 11 14 1014.4 1014.1 2.8
30/02:19am 14.1 11.6 14.1 100 0.0 N 20 26 11 14 1014.4 1014.1 2.8
30/02:00am 14.0 10.7 14.0 100 0.0 N 24 30 13 16 1014.6 1014.3 2.8
30/01:30am 14.2 10.6 14.2 100 0.0 N 26 32 14 17 1014.6 1014.3 2.8
30/01:00am 14.4 10.5 14.4 100 0.0 N 28 33 15 18 1014.4 1014.1 2.8
30/12:30am 14.3 10.4 14.3 100 0.0 N 28 37 15 20 1014.4 1014.1 2.8
30/12:03am 14.3 11.1 14.3 100 0.0 N 24 33 13 18 1014.6 1014.3 2.8
30/12:00am 14.3 11.1 14.3 100 0.0 N 24 32 13 17 1014.6 1014.3 2.8
 
Date/Time
EST
Temp
°C
App
Temp
°C
Dew
Point
Rel
Hum
%
Delta-T
°C
Wind Press
QNH
hPa
Press
MSL
hPa
Rain
since 9 am
mm
Dir
 
Spd
km/h
Gust
km/h
Spd
kts
Gust
kts
29/11:30pm 14.4 11.3 14.4 100 0.0 N 24 32 13 17 1014.8 1014.5 2.8
29/11:00pm 14.2 11.0 14.2 100 0.0 N 24 32 13 17 1015.0 1014.7 2.8
29/10:30pm 14.3 11.9 14.3 100 0.0 N 20 30 11 16 1015.1 1014.8 2.8
29/10:00pm 14.2 10.6 14.2 100 0.0 N 26 32 14 17 1015.3 1015.0 2.8
29/09:30pm 14.1 11.6 14.1 100 0.0 N 20 26 11 14 1015.4 1015.1 2.8
29/09:00pm 14.2 11.0 14.2 100 0.0 N 24 32 13 17 1015.3 1015.0 2.8
29/08:30pm 14.1 10.5 14.1 100 0.0 N 26 33 14 18 1015.1 1014.8 2.8
29/08:25pm 14.2 10.2 14.2 100 0.0 N 28 33 15 18 1015.1 1014.8 2.8
29/08:00pm 14.0 9.6 14.0 100 0.0 N 30 39 16 21 1014.6 1014.3 2.8
29/07:35pm 13.8 10.4 13.8 100 0.0 N 24 35 13 19 1014.6 1014.3 2.8
29/07:30pm 13.9 10.6 13.9 100 0.0 N 24 30 13 16 1014.5 1014.2 2.8
29/07:19pm 14.0 10.0 14.0 100 0.0 N 28 35 15 19 1014.6 1014.3 2.8
29/07:18pm 14.0 10.0 14.0 100 0.0 N 28 35 15 19 1014.6 1014.3 2.8
29/07:00pm 13.9 10.2 13.9 100 0.0 N 26 35 14 19 1014.7 1014.4 2.8
29/06:30pm 14.2 9.8 14.0 99 0.1 N 30 39 16 21 1014.4 1014.1 2.8
29/06:00pm 14.4 10.4 14.2 99 0.1 N 28 39 15 21 1013.9 1013.5 2.8
29/05:30pm 14.6 10.7 14.4 99 0.1 N 28 35 15 19 1014.0 1013.6 2.8
29/05:00pm 14.8 10.2 14.6 99 0.1 N 32 43 17 23 1013.7 1013.3 2.8
29/04:43pm 14.8 10.9 14.5 98 0.2 N 28 37 15 20 1013.5 1013.1 2.8
29/04:30pm 15.1 11.3 14.8 98 0.2 N 28 35 15 19 1013.5 1013.1 2.8
29/04:10pm 14.7 10.8 14.5 99 0.1 N 28 35 15 19 1013.6 1013.2 2.8
29/04:00pm 14.5 10.6 14.3 99 0.1 N 28 37 15 20 1013.7 1013.3 2.8
29/03:55pm 14.4 10.4 14.2 99 0.1 N 28 37 15 20 1013.8 1013.4 2.8
29/03:54pm 14.4 10.4 14.2 99 0.1 N 28 39 15 21 1013.8 1013.4 2.8
29/03:30pm 14.6 10.3 14.4 99 0.1 N 30 43 16 23 1013.6 1013.2 2.8
29/03:00pm 14.8 10.6 14.6 99 0.1 N 30 37 16 20 1013.6 1013.2 2.8
29/02:30pm 14.5 9.9 14.5 100 0.0 N 32 39 17 21 1013.3 1012.9 2.8
29/02:00pm 14.2 10.2 14.2 100 0.0 N 28 37 15 20 1013.8 1013.4 2.8
29/01:34pm 14.3 10.4 14.3 100 0.0 N 28 35 15 19 1014.2 1013.8 2.6
29/01:30pm 14.3 10.4 14.3 100 0.0 N 28 35 15 19 1014.1 1013.7 2.6
29/01:00pm 14.5 10.6 14.3 99 0.1 N 28 35 15 19 1014.2 1013.8 2.6
29/12:30pm 14.4 10.4 14.2 99 0.1 N 28 35 15 19 1014.4 1014.1 2.6
29/12:00pm 14.1 10.4 13.9 99 0.1 N 26 32 14 17 1014.9 1014.6 2.6
29/11:30am 13.9 10.9 13.7 99 0.1 NNE 22 28 12 15 1015.2 1014.9 2.4
29/11:00am 13.8 10.4 13.6 99 0.1 N 24 32 13 17 1015.9 1015.5 1.8
29/10:30am 13.9 10.5 13.7 99 0.1 N 24 28 13 15 1016.3 1016.0 1.0
29/10:00am 14.2 10.5 13.9 98 0.2 N 26 32 14 17 1016.2 1015.8 0.4
29/09:30am 14.6 10.2 12.8 89 1.0 N 28 33 15 18 1016.2 1015.8 0.0
29/09:00am 15.0 9.9 11.8 81 1.8 N 30 37 16 20 1015.9 1015.5 2.6
29/08:30am 15.1 10.2 11.3 78 2.1 NNE 28 35 15 19 1015.3 1015.0 2.6
29/08:00am 14.4 11.7 11.7 84 1.5 NNE 17 24 9 13 1015.3 1015.0 2.6
29/07:30am 14.3 11.0 11.5 83 1.5 N 20 26 11 14 1015.8 1015.4 2.6
29/07:00am 14.2 10.1 11.4 83 1.5 NNE 24 33 13 18 1015.5 1015.2 2.4
29/06:30am 13.8 11.4 11.3 85 1.4 NNW 15 19 8 10 1015.4 1015.1 2.2
29/06:00am 13.9 9.4 9.9 77 2.1 N 24 30 13 16 1015.3 1015.0 1.4
29/05:30am 16.6 12.1 8.6 59 4.2 NNE 22 28 12 15 1014.9 1014.6 1.2
29/05:00am 16.4 11.4 8.1 58 4.3 NNE 24 30 13 16 1014.9 1014.6 1.2
29/04:30am 16.5 11.3 7.4 55 4.6 NNE 24 30 13 16 1015.1 1014.8 1.2
29/04:00am 16.5 12.2 7.2 54 4.7 NNE 19 24 10 13 1015.2 1014.9 1.2
29/03:30am 15.2 11.8 7.7 61 3.8 NE 15 19 8 10 1015.2 1014.9 1.2
29/03:00am 15.2 11.4 7.5 60 3.9 NNE 17 20 9 11 1015.7 1015.3 1.2
29/02:30am 16.1 11.7 7.3 56 4.5 NNE 20 22 11 12 1015.9 1015.5 1.2
29/02:00am 16.1 12.7 7.8 58 4.3 NNE 15 19 8 10 1016.4 1016.1 1.2
29/01:30am 17.1 13.3 7.7 54 4.8 N 17 20 9 11 1016.7 1016.4 1.2
29/01:00am 16.8 13.2 8.5 58 4.3 NNE 17 22 9 12 1016.6 1016.3 1.2
29/12:30am 14.6 12.6 8.8 68 3.0 NNW 9 11 5 6 1016.6 1016.3 1.2
29/12:00am 15.1 13.2 9.0 67 3.2 N 9 13 5 7 1016.8 1016.5 1.2
 
Date/Time
EST
Temp
°C
App
Temp
°C
Dew
Point
Rel
Hum
%
Delta-T
°C
Wind Press
QNH
hPa
Press
MSL
hPa
Rain
since 9 am
mm
Dir
 
Spd
km/h
Gust
km/h
Spd
kts
Gust
kts
28/11:30pm 15.5 13.3 9.4 67 3.2 NNE 11 11 6 6 1017.1 1016.8 1.2
28/11:00pm 16.2 13.7 9.8 66 3.4 NNE 13 15 7 8 1017.3 1017.0 1.2
28/10:30pm 15.8 13.7 9.9 68 3.2 NNE 11 13 6 7 1017.8 1017.5 1.2
28/10:00pm 15.8 13.0 10.1 69 3.1 NE 15 17 8 9 1018.0 1017.7 1.2
28/09:30pm 15.5 13.2 10.5 72 2.7 NNE 13 15 7 8 1018.4 1018.1 1.2
28/09:00pm 14.8 13.4 10.8 77 2.2 NE 9 9 5 5 1018.0 1017.7 1.2
28/08:30pm 14.9 13.3 10.3 74 2.5 NE 9 13 5 7 1018.2 1017.8 1.2
28/08:00pm 15.5 14.9 10.5 72 2.7 NNE 4 7 2 4 1018.4 1018.1 1.2
28/07:30pm 16.0 15.7 10.1 68 3.2 NNW 2 6 1 3 1018.3 1018.0 1.2
28/07:00pm 16.1 14.1 10.2 68 3.2 N 11 11 6 6 1018.4 1018.1 1.2
28/06:30pm 15.9 14.3 10.2 69 3.1 N 9 11 5 6 1018.2 1017.8 1.2
28/06:00pm 16.4 15.3 10.7 69 3.1 NW 7 11 4 6 1017.8 1017.5 1.2
28/05:30pm 17.2 15.6 10.3 64 3.7 NW 9 9 5 5 1017.6 1017.3 1.2
28/05:00pm 18.4 15.6 10.0 58 4.6 NNE 15 19 8 10 1017.7 1017.4 1.2
28/04:30pm 18.8 15.6 10.1 57 4.7 N 17 19 9 10 1017.7 1017.4 1.2
28/04:00pm 19.0 15.4 9.8 55 5.0 N 19 24 10 13 1018.0 1017.7 1.2
28/03:30pm 19.1 14.6 9.9 55 5.0 N 24 32 13 17 1017.8 1017.5 1.2
28/03:00pm 19.1 15.1 10.4 57 4.8 NNE 22 32 12 17 1017.5 1017.2 1.2
28/02:30pm 18.9 15.4 10.2 57 4.8 N 19 28 10 15 1017.7 1017.4 1.2
28/02:00pm 18.1 14.4 10.2 60 4.3 NNE 20 26 11 14 1018.0 1017.7 1.2
28/01:30pm 17.1 13.9 11.4 69 3.2 N 19 24 10 13 1018.4 1018.1 1.2
28/01:00pm 15.5 13.6 11.9 79 2.0 N 13 15 7 8 1018.9 1018.6 1.2
28/12:30pm 15.0 11.8 11.2 78 2.1 N 19 24 10 13 1019.3 1019.0 0.8
28/12:00pm 15.6 13.2 11.4 76 2.3 NNW 15 19 8 10 1019.4 1019.1 0.4
28/11:30am 15.7 12.8 11.1 74 2.5 N 17 24 9 13 1019.1 1018.8 0.4
28/11:00am 16.7 13.3 9.1 61 4.0 N 17 22 9 12 1019.0 1018.7 0.0
28/10:30am 17.4 13.4 8.3 55 4.8 NNE 19 28 10 15 1018.8 1018.5 0.0

Other Formats:

Comma delimited format used in spreadsheet applications
http://www.bom.gov.au/fwo/IDV60801/IDV60801.94852.axf

JavaScript Object Notation format (JSON) in row-major order
http://www.bom.gov.au/fwo/IDV60801/IDV60801.94852.json